THY841 LTFM-LTFE
Flight info
| Callsign | THY841 |
|---|---|
| Flight time | N/A |
| Altitude | 37000 |
| Route | RATVU UT35 NUMTI DCT KULAR UT44 LAVTA UW87 KAVAK |
| Aircraft | A339/H-SADE1E2E3GHIJ3J5M1P2RWXY/LB2D1 |
Departure
| Time | 2026-05-05 18:06 |
|---|---|
| Airport | İstanbul Airport (LTFM) |
Arrival
| Time | N/A |
|---|---|
| Airport | Milas Bodrum International Airport (LTFE) |
| Time | Latitude | Longitude | Altitude | Speed | Heading |
|---|---|---|---|---|---|
| 2026-05-05 17:43 | 41.26320 | 28.73565 | 342 ft | 0 kts | 71° |
| 2026-05-05 17:59 | 41.26316 | 28.73553 | 343 ft | 2 kts | 71° |
| 2026-05-05 17:59 | 41.26311 | 28.73534 | 343 ft | 2 kts | 71° |
| 2026-05-05 17:59 | 41.26308 | 28.73514 | 343 ft | 2 kts | 95° |
| 2026-05-05 17:59 | 41.26311 | 28.73495 | 343 ft | 2 kts | 114° |
| 2026-05-05 18:00 | 41.26319 | 28.73478 | 343 ft | 2 kts | 134° |
| 2026-05-05 18:00 | 41.26331 | 28.73466 | 343 ft | 2 kts | 155° |
| 2026-05-05 18:00 | 41.26337 | 28.73463 | 343 ft | 1 kts | 161° |
| 2026-05-05 18:00 | 41.26339 | 28.73462 | 343 ft | 0 kts | 161° |
| 2026-05-05 18:03 | 41.26334 | 28.73464 | 342 ft | 1 kts | 161° |
| 2026-05-05 18:03 | 41.26313 | 28.73473 | 342 ft | 4 kts | 161° |
| 2026-05-05 18:03 | 41.26269 | 28.73494 | 343 ft | 8 kts | 165° |
| 2026-05-05 18:04 | 41.26217 | 28.73452 | 343 ft | 11 kts | 251° |
| 2026-05-05 18:04 | 41.26209 | 28.73334 | 343 ft | 14 kts | 270° |
| 2026-05-05 18:04 | 41.26209 | 28.73191 | 342 ft | 16 kts | 270° |
| 2026-05-05 18:04 | 41.26208 | 28.73042 | 343 ft | 16 kts | 269° |
| 2026-05-05 18:05 | 41.26206 | 28.72886 | 343 ft | 16 kts | 270° |
| 2026-05-05 18:05 | 41.26203 | 28.72729 | 343 ft | 17 kts | 269° |
| 2026-05-05 18:05 | 41.26207 | 28.72573 | 343 ft | 14 kts | 293° |
| 2026-05-05 18:05 | 41.26302 | 28.72524 | 343 ft | 16 kts | 358° |
| 2026-05-05 18:06 | 41.26573 | 28.72517 | 343 ft | 71 kts | 360° |
| 2026-05-05 18:06 | 41.27005 | 28.72506 | 343 ft | 113 kts | 1° |
| 2026-05-05 18:06 | 41.28366 | 28.72480 | 441 ft | 171 kts | 359° |
| 2026-05-05 18:06 | 41.29536 | 28.72461 | 1157 ft | 164 kts | 360° |
| 2026-05-05 18:07 | 41.30618 | 28.72459 | 1974 ft | 155 kts | 1° |
| 2026-05-05 18:07 | 41.31680 | 28.72482 | 2503 ft | 159 kts | 2° |
| 2026-05-05 18:07 | 41.32854 | 28.72504 | 2836 ft | 176 kts | 2° |
| 2026-05-05 18:07 | 41.34135 | 28.72530 | 3163 ft | 194 kts | 2° |
| 2026-05-05 18:08 | 41.35538 | 28.72471 | 3526 ft | 213 kts | 349° |
| 2026-05-05 18:08 | 41.36944 | 28.71579 | 3908 ft | 236 kts | 323° |
| 2026-05-05 18:08 | 41.37953 | 28.69759 | 4356 ft | 259 kts | 294° |
| 2026-05-05 18:08 | 41.38203 | 28.67366 | 5084 ft | 270 kts | 272° |
| 2026-05-05 18:09 | 41.38150 | 28.64885 | 5875 ft | 272 kts | 273° |
| 2026-05-05 18:09 | 41.38109 | 28.62355 | 6628 ft | 275 kts | 274° |
| 2026-05-05 18:09 | 41.38050 | 28.59833 | 7366 ft | 279 kts | 268° |
| 2026-05-05 18:09 | 41.37378 | 28.57393 | 8046 ft | 294 kts | 238° |
| 2026-05-05 18:10 | 41.35845 | 28.55585 | 8782 ft | 305 kts | 208° |
| 2026-05-05 18:10 | 41.33777 | 28.54916 | 9530 ft | 310 kts | 180° |
| 2026-05-05 18:10 | 41.31626 | 28.55001 | 10260 ft | 314 kts | 177° |
| 2026-05-05 18:10 | 41.29412 | 28.55130 | 10724 ft | 328 kts | 177° |
| 2026-05-05 18:11 | 41.27049 | 28.55255 | 11071 ft | 345 kts | 175° |
| 2026-05-05 18:11 | 41.24694 | 28.56039 | 11403 ft | 359 kts | 152° |
| 2026-05-05 18:11 | 41.22676 | 28.57935 | 11997 ft | 361 kts | 133° |
| 2026-05-05 18:11 | 41.20882 | 28.60293 | 12771 ft | 362 kts | 131° |
| 2026-05-05 18:12 | 41.19114 | 28.62648 | 13501 ft | 366 kts | 131° |
| 2026-05-05 18:12 | 41.17305 | 28.65021 | 14227 ft | 370 kts | 132° |
| 2026-05-05 18:12 | 41.15445 | 28.67418 | 14951 ft | 374 kts | 134° |
| 2026-05-05 18:12 | 41.13404 | 28.69556 | 15647 ft | 381 kts | 144° |
| 2026-05-05 18:13 | 41.11070 | 28.71326 | 16376 ft | 386 kts | 153° |
| 2026-05-05 18:13 | 41.08621 | 28.72744 | 17073 ft | 390 kts | 156° |
| 2026-05-05 18:13 | 41.06086 | 28.74117 | 17781 ft | 393 kts | 156° |
| 2026-05-05 18:13 | 41.03566 | 28.75488 | 18463 ft | 396 kts | 156° |
| 2026-05-05 18:14 | 41.01030 | 28.76889 | 19137 ft | 400 kts | 156° |
| 2026-05-05 18:14 | 40.98447 | 28.78332 | 19824 ft | 403 kts | 156° |
| 2026-05-05 18:14 | 40.95881 | 28.79771 | 20498 ft | 405 kts | 156° |
| 2026-05-05 18:14 | 40.93289 | 28.81222 | 21135 ft | 409 kts | 155° |
| 2026-05-05 18:15 | 40.90646 | 28.82702 | 21753 ft | 412 kts | 155° |
| 2026-05-05 18:15 | 40.88010 | 28.84176 | 22356 ft | 415 kts | 155° |
| 2026-05-05 18:15 | 40.85361 | 28.85657 | 22943 ft | 418 kts | 155° |
| 2026-05-05 18:15 | 40.82641 | 28.87173 | 23522 ft | 421 kts | 155° |
| 2026-05-05 18:16 | 40.79940 | 28.88678 | 24063 ft | 424 kts | 155° |
| 2026-05-05 18:16 | 40.77232 | 28.90187 | 24583 ft | 427 kts | 155° |
| 2026-05-05 18:16 | 40.74505 | 28.91705 | 25101 ft | 430 kts | 155° |
| 2026-05-05 18:16 | 40.71723 | 28.93254 | 25594 ft | 433 kts | 155° |
| 2026-05-05 18:17 | 40.68957 | 28.94791 | 26082 ft | 436 kts | 155° |
| 2026-05-05 18:17 | 40.66136 | 28.96358 | 26567 ft | 439 kts | 155° |
| 2026-05-05 18:17 | 40.63331 | 28.97914 | 27019 ft | 441 kts | 155° |
| 2026-05-05 18:17 | 40.60517 | 28.99473 | 27467 ft | 444 kts | 155° |
| 2026-05-05 18:18 | 40.57642 | 29.01065 | 27904 ft | 447 kts | 156° |
| 2026-05-05 18:18 | 40.54790 | 29.02641 | 28334 ft | 449 kts | 156° |
| 2026-05-05 18:18 | 40.51915 | 29.04228 | 28737 ft | 452 kts | 156° |
| 2026-05-05 18:18 | 40.49023 | 29.05824 | 29133 ft | 455 kts | 156° |
| 2026-05-05 18:19 | 40.46082 | 29.07444 | 29521 ft | 458 kts | 156° |
| 2026-05-05 18:19 | 40.43160 | 29.09055 | 29900 ft | 460 kts | 156° |
| 2026-05-05 18:19 | 40.40176 | 29.10698 | 30286 ft | 463 kts | 156° |
| 2026-05-05 18:19 | 40.37221 | 29.12323 | 30632 ft | 465 kts | 156° |
| 2026-05-05 18:20 | 40.34252 | 29.13955 | 30940 ft | 468 kts | 156° |
| 2026-05-05 18:20 | 40.31213 | 29.15623 | 31246 ft | 471 kts | 156° |
| 2026-05-05 18:20 | 40.28198 | 29.17279 | 31532 ft | 475 kts | 156° |
| 2026-05-05 18:20 | 40.25155 | 29.18947 | 31824 ft | 478 kts | 156° |
| 2026-05-05 18:21 | 40.22056 | 29.20644 | 32125 ft | 481 kts | 156° |
| 2026-05-05 18:21 | 40.18987 | 29.22321 | 32499 ft | 481 kts | 156° |
| 2026-05-05 18:21 | 40.15923 | 29.23998 | 32916 ft | 481 kts | 156° |
| 2026-05-05 18:21 | 40.12831 | 29.25696 | 33305 ft | 480 kts | 156° |
| 2026-05-05 18:22 | 40.09769 | 29.27377 | 33656 ft | 481 kts | 156° |
| 2026-05-05 18:22 | 40.06663 | 29.29082 | 34005 ft | 482 kts | 156° |
| 2026-05-05 18:22 | 40.03592 | 29.30767 | 34327 ft | 482 kts | 156° |
| 2026-05-05 18:22 | 40.00481 | 29.32470 | 34613 ft | 483 kts | 156° |
| 2026-05-05 18:23 | 39.97400 | 29.34157 | 34894 ft | 483 kts | 156° |
| 2026-05-05 18:23 | 39.94316 | 29.35843 | 35180 ft | 483 kts | 156° |
| 2026-05-05 18:23 | 39.91188 | 29.37550 | 35453 ft | 484 kts | 156° |
| 2026-05-05 18:23 | 39.88105 | 29.39239 | 35671 ft | 485 kts | 156° |
| 2026-05-05 18:24 | 39.85014 | 29.40941 | 35866 ft | 486 kts | 156° |
| 2026-05-05 18:24 | 39.81874 | 29.42673 | 36061 ft | 488 kts | 156° |
| 2026-05-05 18:24 | 39.78753 | 29.44390 | 36295 ft | 490 kts | 156° |
| 2026-05-05 18:24 | 39.75628 | 29.46108 | 36530 ft | 491 kts | 157° |
| 2026-05-05 18:25 | 39.72431 | 29.47596 | 36737 ft | 492 kts | 165° |
| 2026-05-05 18:25 | 39.70202 | 29.48242 | 36880 ft | 492 kts | 171° |
| 2026-05-05 18:25 | 39.65649 | 29.48647 | 37043 ft | 492 kts | 184° |
| 2026-05-05 18:26 | 39.58897 | 29.47016 | 37052 ft | 498 kts | 202° |
| 2026-05-05 18:26 | 39.52758 | 29.42883 | 37059 ft | 500 kts | 216° |
| 2026-05-05 18:27 | 39.47007 | 29.37916 | 37060 ft | 500 kts | 217° |
| 2026-05-05 18:27 | 39.41221 | 29.32927 | 37062 ft | 500 kts | 217° |
| 2026-05-05 18:28 | 39.32540 | 29.25530 | 37061 ft | 500 kts | 216° |
| 2026-05-05 18:28 | 39.26740 | 29.20615 | 37062 ft | 499 kts | 216° |
| 2026-05-05 18:29 | 39.20943 | 29.15715 | 37050 ft | 499 kts | 216° |
| 2026-05-05 18:29 | 39.15253 | 29.10923 | 37058 ft | 478 kts | 217° |
| 2026-05-05 18:30 | 39.09736 | 29.06275 | 36993 ft | 477 kts | 217° |
| 2026-05-05 18:30 | 39.06938 | 29.03922 | 36756 ft | 476 kts | 217° |
| 2026-05-05 18:30 | 39.04197 | 29.01618 | 36508 ft | 473 kts | 217° |
| 2026-05-05 18:31 | 39.01466 | 28.99327 | 36257 ft | 471 kts | 217° |
| 2026-05-05 18:31 | 38.98737 | 28.97041 | 35959 ft | 468 kts | 217° |
| 2026-05-05 18:31 | 38.95995 | 28.94744 | 35660 ft | 467 kts | 217° |
| 2026-05-05 18:31 | 38.93286 | 28.92476 | 35243 ft | 468 kts | 217° |
| 2026-05-05 18:32 | 38.90547 | 28.90185 | 34746 ft | 469 kts | 217° |
| 2026-05-05 18:32 | 38.87820 | 28.87907 | 34210 ft | 470 kts | 218° |
| 2026-05-05 18:32 | 38.85081 | 28.85621 | 33615 ft | 472 kts | 218° |
| 2026-05-05 18:32 | 38.82345 | 28.83339 | 33015 ft | 473 kts | 218° |
| 2026-05-05 18:33 | 38.79580 | 28.81033 | 32399 ft | 474 kts | 218° |
| 2026-05-05 18:33 | 38.76846 | 28.78756 | 31800 ft | 474 kts | 217° |
| 2026-05-05 18:33 | 38.74075 | 28.76454 | 31382 ft | 470 kts | 217° |
| 2026-05-05 18:33 | 38.71363 | 28.74204 | 30999 ft | 465 kts | 217° |
| 2026-05-05 18:34 | 38.68676 | 28.71976 | 30611 ft | 461 kts | 218° |
| 2026-05-05 18:34 | 38.65989 | 28.69748 | 30219 ft | 457 kts | 217° |
| 2026-05-05 18:34 | 38.63366 | 28.67576 | 29814 ft | 452 kts | 217° |
| 2026-05-05 18:34 | 38.60637 | 28.65506 | 29403 ft | 453 kts | 210° |
| 2026-05-05 18:35 | 38.57694 | 28.64159 | 29011 ft | 455 kts | 197° |
| 2026-05-05 18:35 | 38.54583 | 28.63593 | 28654 ft | 455 kts | 185° |
| 2026-05-05 18:35 | 38.51397 | 28.63712 | 28272 ft | 453 kts | 179° |
| 2026-05-05 18:35 | 38.48274 | 28.63996 | 27871 ft | 451 kts | 178° |
| 2026-05-05 18:36 | 38.45175 | 28.64298 | 27489 ft | 447 kts | 178° |
| 2026-05-05 18:36 | 38.42060 | 28.64592 | 27107 ft | 444 kts | 178° |
| 2026-05-05 18:36 | 38.39017 | 28.64865 | 26735 ft | 441 kts | 178° |
| 2026-05-05 18:36 | 38.35977 | 28.65130 | 26356 ft | 438 kts | 178° |
| 2026-05-05 18:37 | 38.32929 | 28.65386 | 25978 ft | 435 kts | 178° |
| 2026-05-05 18:37 | 38.29939 | 28.65636 | 25605 ft | 432 kts | 178° |